Time;durP1;ratioP1;P1;durP2;ratioP2;P2;SDS_P1;SDS_P2;PMS_P1;PMS_P2;Temp;Humidity;BMP_temperature;BMP_pressure;BME280_temperature;BME280_humidity;BME280_pressure;Samples;Min_cycle;Max_cycle;Signal;HPM_P1;HPM_P2
2021/03/03 00:00:27;;;;;;;8.80;6.67;;;1.40;99.90;;;;;;4978992;28;20193;-78
2021/03/03 00:02:52;;;;;;;9.73;6.07;;;1.40;99.90;;;;;;4980533;28;20257;-78
2021/03/03 00:05:18;;;;;;;11.47;7.43;;;1.30;99.90;;;;;;4985863;28;20766;-78
2021/03/03 00:07:44;;;;;;;8.83;5.80;;;1.30;99.90;;;;;;4985553;28;20188;-78
2021/03/03 00:10:10;;;;;;;12.63;7.27;;;1.30;99.90;;;;;;4980336;28;20713;-78
2021/03/03 00:12:35;;;;;;;8.70;5.50;;;1.20;99.90;;;;;;4985893;28;20222;-78
2021/03/03 00:15:01;;;;;;;8.37;5.93;;;1.20;99.90;;;;;;4985898;28;20564;-78
2021/03/03 00:17:26;;;;;;;8.33;5.43;;;1.20;99.90;;;;;;4978920;28;20267;-79
2021/03/03 00:19:52;;;;;;;10.10;5.13;;;1.10;99.90;;;;;;4977867;28;20204;-79
2021/03/03 00:22:18;;;;;;;5.97;5.37;;;1.10;99.90;;;;;;4979086;28;20203;-79
2021/03/03 00:24:43;;;;;;;9.17;5.87;;;1.10;99.90;;;;;;4985845;28;20189;-79
2021/03/03 00:27:09;;;;;;;8.97;5.87;;;1.10;99.90;;;;;;4987457;28;20188;-78
2021/03/03 00:29:34;;;;;;;14.13;7.13;;;1.20;99.90;;;;;;4986172;28;20196;-78
2021/03/03 00:32:00;;;;;;;9.07;6.23;;;1.20;99.90;;;;;;4979967;28;20287;-77
2021/03/03 00:34:25;;;;;;;12.57;5.87;;;1.30;99.90;;;;;;4978517;28;20184;-78
2021/03/03 00:36:51;;;;;;;10.93;6.27;;;1.20;99.90;;;;;;4980582;28;20196;-77
2021/03/03 00:39:17;;;;;;;8.60;6.83;;;1.10;99.90;;;;;;4979801;28;20922;-79
2021/03/03 00:41:42;;;;;;;8.00;5.03;;;1.10;99.90;;;;;;4978371;28;20208;-78
2021/03/03 00:44:08;;;;;;;10.90;6.37;;;1.10;99.90;;;;;;4988087;28;20972;-78
2021/03/03 00:46:33;;;;;;;9.13;6.67;;;1.10;99.90;;;;;;4986291;28;20199;-80
2021/03/03 00:48:59;;;;;;;10.17;7.00;;;1.00;99.90;;;;;;4979509;28;20655;-78
2021/03/03 00:51:24;;;;;;;8.30;5.60;;;0.90;99.90;;;;;;4980853;28;20243;-79
2021/03/03 00:53:50;;;;;;;10.27;6.00;;;0.90;99.90;;;;;;4987012;28;20196;-78
2021/03/03 00:56:15;;;;;;;11.80;6.10;;;0.90;99.90;;;;;;4982169;28;20192;-79
2021/03/03 00:58:41;;;;;;;8.97;5.17;;;0.90;99.90;;;;;;4988260;28;20204;-78
2021/03/03 01:01:07;;;;;;;12.37;6.40;;;0.90;99.90;;;;;;4986453;28;20192;-80
2021/03/03 01:03:32;;;;;;;7.67;5.30;;;0.80;99.90;;;;;;4985547;28;20619;-78
2021/03/03 01:05:58;;;;;;;6.67;5.43;;;0.80;99.90;;;;;;4982929;28;20192;-79
2021/03/03 01:08:23;;;;;;;8.67;5.77;;;0.80;99.90;;;;;;4976169;28;20191;-79
2021/03/03 01:10:49;;;;;;;8.00;5.97;;;0.80;99.90;;;;;;4978594;28;20239;-79
2021/03/03 01:13:14;;;;;;;9.50;6.13;;;0.80;99.90;;;;;;4981407;28;20220;-78
2021/03/03 01:15:40;;;;;;;10.17;6.13;;;0.80;99.90;;;;;;4986859;28;20196;-78
2021/03/03 01:18:06;;;;;;;8.87;5.60;;;0.80;99.90;;;;;;4980551;28;20195;-78
2021/03/03 01:20:32;;;;;;;7.97;4.97;;;0.70;99.90;;;;;;4982120;28;20298;-78
2021/03/03 01:22:59;;;;;;;7.43;4.93;;;0.70;99.90;;;;;;4977799;28;20200;-78
2021/03/03 01:25:25;;;;;;;7.93;6.57;;;0.70;99.90;;;;;;4978858;28;20184;-78
2021/03/03 01:27:50;;;;;;;8.03;5.60;;;0.70;99.90;;;;;;4980694;28;20235;-78
2021/03/03 01:30:16;;;;;;;9.67;5.77;;;0.70;99.90;;;;;;4986967;28;20809;-79
2021/03/03 01:32:42;;;;;;;9.83;6.37;;;0.70;99.90;;;;;;4987572;28;20219;-80
2021/03/03 01:35:09;;;;;;;6.17;4.27;;;0.60;99.90;;;;;;4978778;28;20203;-79
2021/03/03 01:37:35;;;;;;;8.70;5.93;;;0.60;99.90;;;;;;4979889;28;20276;-80
2021/03/03 01:40:02;;;;;;;8.70;5.90;;;0.60;99.90;;;;;;4980323;28;20204;-78
2021/03/03 01:42:28;;;;;;;7.23;5.83;;;0.60;99.90;;;;;;4980438;28;20336;-80
2021/03/03 01:44:53;;;;;;;7.73;5.23;;;0.60;99.90;;;;;;4979183;28;20279;-78
2021/03/03 01:47:19;;;;;;;6.83;4.90;;;0.60;99.90;;;;;;4987870;28;20180;-78
2021/03/03 01:49:44;;;;;;;8.77;5.10;;;0.50;99.90;;;;;;4986912;28;20206;-78
2021/03/03 01:52:10;;;;;;;11.57;7.13;;;0.40;99.90;;;;;;4980518;28;20205;-79
2021/03/03 01:54:36;;;;;;;10.23;6.13;;;0.40;99.90;;;;;;4980611;28;20188;-79
2021/03/03 01:57:02;;;;;;;9.87;5.70;;;0.40;99.90;;;;;;4987596;28;20548;-78
2021/03/03 01:59:28;;;;;;;8.13;5.07;;;0.40;99.90;;;;;;4982324;28;20212;-78
2021/03/03 02:01:54;;;;;;;8.03;6.03;;;0.40;99.90;;;;;;4985381;28;20196;-79
2021/03/03 02:04:20;;;;;;;7.63;5.83;;;0.30;99.90;;;;;;4980482;28;20203;-77
2021/03/03 02:07:04;;;;;;;6.60;5.53;;;0.20;99.90;;;;;;4986729;28;20197;-80
2021/03/03 02:10:01;;;;;;;7.67;4.13;;;0.20;99.90;;;;;;4986661;28;20184;-79
2021/03/03 02:13:05;;;;;;;8.90;4.67;;;0.20;99.90;;;;;;4981687;28;20207;-78
2021/03/03 02:15:32;;;;;;;4.97;3.47;;;0.10;99.90;;;;;;4977801;28;20205;-78
2021/03/03 02:18:01;;;;;;;7.57;4.27;;;0.00;99.90;;;;;;4982249;28;20665;-78
2021/03/03 02:20:32;;;;;;;9.47;5.83;;;0.00;99.90;;;;;;4987869;28;20198;-78
2021/03/03 02:23:15;;;;;;;9.67;4.80;;;0.00;99.90;;;;;;4978188;28;20205;-77
2021/03/03 02:25:43;;;;;;;6.53;5.23;;;0.00;99.90;;;;;;4978833;28;20184;-78
2021/03/03 02:28:11;;;;;;;7.40;4.27;;;-0.10;99.90;;;;;;4987306;28;20196;-78
2021/03/03 02:31:30;;;;;;;7.13;4.60;;;-0.10;99.90;;;;;;4987257;28;20303;-78
2021/03/03 02:33:59;;;;;;;6.90;4.93;;;-0.10;99.90;;;;;;4979827;28;20203;-80
2021/03/03 02:36:25;;;;;;;5.80;4.53;;;-0.10;99.90;;;;;;4987275;28;20205;-79
2021/03/03 02:38:51;;;;;;;6.10;4.50;;;-0.10;99.90;;;;;;4981492;28;20240;-81
2021/03/03 02:41:18;;;;;;;11.10;5.73;;;-0.10;99.90;;;;;;4981963;28;20184;-78
2021/03/03 02:43:44;;;;;;;5.67;4.90;;;-0.10;99.90;;;;;;4991831;28;20239;-78
2021/03/03 02:46:10;;;;;;;4.97;4.37;;;-0.10;99.90;;;;;;4992763;28;20185;-78
2021/03/03 02:48:37;;;;;;;5.47;3.57;;;-0.10;99.90;;;;;;4986643;28;20284;-78
2021/03/03 02:51:03;;;;;;;7.37;5.00;;;-0.10;99.90;;;;;;4986573;28;20731;-78
2021/03/03 02:53:28;;;;;;;6.73;4.83;;;-0.20;99.90;;;;;;4988233;28;20283;-79
2021/03/03 02:55:54;;;;;;;7.67;4.90;;;-0.10;99.90;;;;;;4985609;28;20216;-80
2021/03/03 02:58:23;;;;;;;8.43;5.43;;;-0.20;99.90;;;;;;4985634;28;20255;-78
2021/03/03 03:00:53;;;;;;;8.63;5.07;;;-0.20;99.90;;;;;;4985866;28;20181;-78
2021/03/03 03:03:34;;;;;;;5.43;4.63;;;-0.20;99.90;;;;;;4984693;28;21147;-77
2021/03/03 03:06:23;;;;;;;7.97;5.23;;;-0.30;99.90;;;;;;4983730;28;20187;-77
2021/03/03 03:08:51;;;;;;;6.83;4.30;;;-0.30;99.90;;;;;;4985605;28;20188;-78
2021/03/03 03:11:20;;;;;;;7.33;4.03;;;-0.30;99.90;;;;;;4986102;28;20192;-79
2021/03/03 03:13:49;;;;;;;6.03;4.87;;;-0.30;99.90;;;;;;4984904;28;20675;-79
2021/03/03 03:16:16;;;;;;;7.17;4.23;;;-0.30;99.90;;;;;;4992239;28;20216;-76
2021/03/03 03:18:45;;;;;;;4.37;3.70;;;-0.30;99.90;;;;;;4985319;28;20236;-79
2021/03/03 03:21:12;;;;;;;5.17;3.67;;;-0.40;99.90;;;;;;4985293;28;20185;-81
2021/03/03 03:23:40;;;;;;;6.97;3.67;;;-0.40;99.90;;;;;;5001831;28;20465;-78
2021/03/03 03:26:06;;;;;;;5.63;3.77;;;-0.40;99.90;;;;;;4992707;28;20188;-79
2021/03/03 03:28:36;;;;;;;5.77;4.00;;;-0.40;99.90;;;;;;4987444;28;20192;-79
2021/03/03 03:31:03;;;;;;;5.47;3.13;;;-0.40;99.90;;;;;;4999780;28;20185;-79
2021/03/03 03:33:29;;;;;;;5.97;4.47;;;-0.50;99.90;;;;;;4993501;28;20205;-81
2021/03/03 03:35:55;;;;;;;3.67;2.67;;;-0.50;99.90;;;;;;4992874;28;20197;-79
2021/03/03 03:38:20;;;;;;;5.83;3.90;;;-0.50;99.90;;;;;;4987381;28;20204;-80
2021/03/03 03:40:47;;;;;;;5.93;4.77;;;-0.50;99.90;;;;;;4984182;28;20188;-79
2021/03/03 03:43:14;;;;;;;5.13;3.40;;;-0.40;99.90;;;;;;4989790;28;20235;-79
2021/03/03 03:45:40;;;;;;;5.97;4.33;;;-0.50;99.90;;;;;;4986337;28;20212;-78
2021/03/03 03:48:07;;;;;;;4.67;3.57;;;-0.40;99.90;;;;;;4977151;28;20189;-79
2021/03/03 03:50:33;;;;;;;4.40;3.73;;;-0.50;99.90;;;;;;4977710;28;20197;-79
2021/03/03 03:52:59;;;;;;;4.37;3.87;;;-0.40;99.90;;;;;;4987801;28;20706;-77
2021/03/03 03:55:36;;;;;;;5.67;3.57;;;-0.40;99.90;;;;;;4974423;28;20207;-78
2021/03/03 03:58:04;;;;;;;6.13;3.57;;;-0.50;99.90;;;;;;4983635;28;20184;-77
2021/03/03 04:00:30;;;;;;;4.73;3.60;;;-0.50;99.90;;;;;;4984865;28;20463;-77
2021/03/03 04:02:57;;;;;;;5.50;3.90;;;-0.50;99.90;;;;;;4982271;28;20580;-78
2021/03/03 04:05:24;;;;;;;5.17;3.37;;;-0.50;99.90;;;;;;4978903;28;20181;-79
2021/03/03 04:07:50;;;;;;;8.97;4.13;;;-0.60;99.90;;;;;;4980253;28;20219;-77
2021/03/03 04:10:18;;;;;;;6.33;3.83;;;-0.60;99.90;;;;;;4980426;28;20212;-77
2021/03/03 04:12:44;;;;;;;3.97;3.23;;;-0.60;99.90;;;;;;4980228;28;20205;-77
2021/03/03 04:15:11;;;;;;;3.17;2.87;;;-0.60;99.90;;;;;;4981228;28;20599;-77
2021/03/03 04:17:39;;;;;;;3.80;2.63;;;-0.60;99.90;;;;;;4987034;28;20188;-78
2021/03/03 04:20:07;;;;;;;5.80;4.40;;;-0.60;99.90;;;;;;4986468;28;20214;-77
2021/03/03 04:22:33;;;;;;;5.57;4.07;;;-0.60;99.90;;;;;;4986692;28;20204;-78
2021/03/03 04:24:59;;;;;;;5.17;3.63;;;-0.60;99.90;;;;;;4978499;28;20184;-79
2021/03/03 04:27:25;;;;;;;5.17;3.60;;;-0.70;99.90;;;;;;4982672;28;20195;-79
2021/03/03 04:29:51;;;;;;;6.97;3.93;;;-0.70;99.90;;;;;;4981035;28;20192;-77
2021/03/03 04:32:16;;;;;;;5.17;3.50;;;-0.70;99.90;;;;;;4975962;28;20872;-80
2021/03/03 04:34:42;;;;;;;5.97;3.30;;;-0.70;99.90;;;;;;4985026;28;20185;-77
2021/03/03 04:37:08;;;;;;;7.20;4.73;;;-0.70;99.90;;;;;;4982438;28;20193;-78
2021/03/03 04:39:33;;;;;;;6.23;4.13;;;-0.70;99.90;;;;;;4972497;28;20204;-78
2021/03/03 04:41:59;;;;;;;6.37;4.70;;;-0.70;99.90;;;;;;4979802;28;20211;-77
2021/03/03 04:44:24;;;;;;;4.90;4.03;;;-0.70;99.90;;;;;;4970431;28;20212;-79
2021/03/03 04:46:50;;;;;;;5.97;4.20;;;-0.70;99.90;;;;;;4981308;28;20837;-78
2021/03/03 04:49:15;;;;;;;5.73;4.03;;;-0.70;99.90;;;;;;4976915;28;20188;-77
2021/03/03 04:51:41;;;;;;;5.20;3.87;;;-0.70;99.90;;;;;;4969978;28;20687;-77
2021/03/03 04:54:07;;;;;;;3.63;2.83;;;-0.70;99.90;;;;;;4981320;28;20191;-78
2021/03/03 04:56:32;;;;;;;4.23;3.57;;;-0.70;99.90;;;;;;4968133;28;20195;-77
2021/03/03 04:58:58;;;;;;;4.70;3.13;;;-0.70;99.90;;;;;;4976005;28;20220;-78
2021/03/03 05:01:23;;;;;;;5.17;3.83;;;-0.70;99.90;;;;;;4982638;28;20646;-76
2021/03/03 05:03:49;;;;;;;6.23;3.23;;;-0.70;99.90;;;;;;4974717;28;20181;-79
2021/03/03 05:06:15;;;;;;;7.20;3.87;;;-0.70;99.90;;;;;;4979601;28;20220;-80
2021/03/03 05:08:40;;;;;;;4.83;3.20;;;-0.70;99.90;;;;;;4982880;28;20674;-79
2021/03/03 05:11:06;;;;;;;5.43;3.17;;;-0.70;99.90;;;;;;4981166;28;20196;-76
2021/03/03 05:13:32;;;;;;;7.00;3.73;;;-0.80;99.90;;;;;;4971899;28;20185;-79
2021/03/03 05:15:58;;;;;;;5.03;3.97;;;-0.80;99.90;;;;;;4985306;28;20188;-79
2021/03/03 05:18:24;;;;;;;4.17;3.73;;;-0.80;99.90;;;;;;4977445;28;20643;-78
2021/03/03 05:20:50;;;;;;;4.63;3.40;;;-0.80;99.90;;;;;;4982395;28;20204;-78
2021/03/03 05:23:31;;;;;;;4.77;3.30;;;-0.80;99.90;;;;;;4977656;28;20205;-78
2021/03/03 05:25:58;;;;;;;6.23;4.63;;;-0.80;99.90;;;;;;4982027;28;20267;-78
2021/03/03 05:28:24;;;;;;;6.03;3.20;;;-0.70;99.90;;;;;;4982440;28;20184;-79
2021/03/03 05:30:50;;;;;;;3.33;2.77;;;-0.70;99.90;;;;;;4987821;28;20627;-78
2021/03/03 05:33:27;;;;;;;3.87;2.70;;;-0.80;99.90;;;;;;4982526;28;20212;-77
2021/03/03 05:35:54;;;;;;;4.47;3.17;;;-0.80;99.90;;;;;;4981961;28;20714;-79
2021/03/03 05:38:21;;;;;;;7.30;4.80;;;-0.70;99.90;;;;;;4988093;28;20270;-78
2021/03/03 05:40:47;;;;;;;3.17;2.63;;;-0.70;99.90;;;;;;4981256;28;20342;-77
2021/03/03 05:43:13;;;;;;;5.17;3.27;;;-0.70;99.90;;;;;;4988188;28;20204;-78
2021/03/03 05:45:42;;;;;;;5.53;3.50;;;-0.70;99.90;;;;;;4978675;28;20196;-79
2021/03/03 05:48:31;;;;;;;7.50;4.70;;;-0.60;99.90;;;;;;4982391;28;20316;-77
2021/03/03 05:50:58;;;;;;;4.33;2.80;;;-0.60;99.90;;;;;;4980395;28;20207;-77
2021/03/03 05:53:25;;;;;;;3.07;2.47;;;-0.60;99.90;;;;;;4987109;28;20537;-78
2021/03/03 05:55:59;;;;;;;3.90;3.07;;;-0.60;99.90;;;;;;4987681;28;20189;-79
2021/03/03 05:58:27;;;;;;;4.63;3.30;;;-0.60;99.90;;;;;;4986457;28;20205;-79
2021/03/03 06:00:56;;;;;;;3.97;3.33;;;-0.60;99.90;;;;;;4981015;28;20188;-79
2021/03/03 06:03:23;;;;;;;6.47;3.20;;;-0.70;99.90;;;;;;4987193;28;20209;-79
2021/03/03 06:05:49;;;;;;;5.13;2.93;;;-0.70;99.90;;;;;;4980808;28;20199;-77
2021/03/03 06:08:16;;;;;;;5.97;2.90;;;-0.70;99.90;;;;;;4987715;28;20661;-77
2021/03/03 06:10:42;;;;;;;4.70;3.20;;;-0.60;99.90;;;;;;4979619;28;20270;-79
2021/03/03 06:13:09;;;;;;;5.30;3.63;;;-0.70;99.90;;;;;;4987611;28;20215;-79
2021/03/03 06:15:35;;;;;;;2.37;2.07;;;-0.60;99.90;;;;;;4986770;28;20244;-77
2021/03/03 06:18:04;;;;;;;4.23;2.93;;;-0.60;99.90;;;;;;4988573;28;20196;-78
2021/03/03 06:20:36;;;;;;;3.90;2.77;;;-0.60;99.90;;;;;;4986688;28;20208;-79
2021/03/03 06:23:21;;;;;;;4.10;2.60;;;-0.60;99.90;;;;;;4981222;28;20215;-78
2021/03/03 06:26:03;;;;;;;4.40;2.90;;;-0.60;99.90;;;;;;4978356;28;20176;-77
2021/03/03 06:28:36;;;;;;;3.07;2.43;;;-0.60;99.90;;;;;;4987825;28;20196;-78
2021/03/03 06:31:26;;;;;;;3.90;2.87;;;-0.60;99.90;;;;;;4978202;28;20758;-79
2021/03/03 06:33:53;;;;;;;3.47;2.47;;;-0.50;99.90;;;;;;4980052;28;20180;-77
2021/03/03 06:36:20;;;;;;;4.33;2.47;;;-0.50;99.90;;;;;;4984064;28;20192;-77
2021/03/03 06:38:46;;;;;;;4.10;3.23;;;-0.50;99.90;;;;;;4985914;28;20295;-78
2021/03/03 06:41:11;;;;;;;3.67;2.97;;;-0.50;99.90;;;;;;4978428;28;20786;-77
2021/03/03 06:43:37;;;;;;;3.10;1.90;;;-0.40;99.90;;;;;;4986682;28;20220;-79
2021/03/03 06:46:23;;;;;;;2.50;2.30;;;-0.30;99.90;;;;;;4978513;28;20194;-79
2021/03/03 06:48:49;;;;;;;4.00;2.60;;;-0.30;99.90;;;;;;4979770;28;20207;-78
2021/03/03 06:51:18;;;;;;;4.50;2.80;;;-0.20;99.90;;;;;;4976408;28;20607;-78
2021/03/03 06:53:43;;;;;;;4.47;2.73;;;-0.20;99.90;;;;;;4984532;28;20193;-77
2021/03/03 06:56:09;;;;;;;3.23;2.50;;;-0.10;99.90;;;;;;4983814;28;20191;-80
2021/03/03 06:58:34;;;;;;;2.17;1.97;;;0.00;99.90;;;;;;4983777;28;20216;-79
2021/03/03 07:01:00;;;;;;;2.80;2.20;;;0.00;99.90;;;;;;4983670;28;20679;-77
2021/03/03 07:03:35;;;;;;;3.23;2.47;;;0.10;99.90;;;;;;4984424;28;20254;-78
2021/03/03 07:06:04;;;;;;;2.73;1.97;;;0.10;99.90;;;;;;4983854;28;20281;-78
2021/03/03 07:08:30;;;;;;;2.60;2.17;;;0.20;99.90;;;;;;4977307;28;20185;-78
2021/03/03 07:10:56;;;;;;;5.27;2.97;;;0.30;99.90;;;;;;4975602;28;20200;-79
2021/03/03 07:13:38;;;;;;;3.53;2.27;;;0.30;99.90;;;;;;4974653;28;20291;-78
2021/03/03 07:16:08;;;;;;;3.40;2.50;;;0.50;99.90;;;;;;4976694;28;20215;-77
2021/03/03 07:18:38;;;;;;;5.17;3.20;;;0.50;99.90;;;;;;4977022;28;20716;-77
2021/03/03 07:21:07;;;;;;;3.90;2.73;;;0.60;99.90;;;;;;4975248;28;20270;-78
2021/03/03 07:23:51;;;;;;;4.17;3.40;;;0.70;99.90;;;;;;4978022;28;20193;-78
2021/03/03 07:26:17;;;;;;;3.67;2.30;;;0.80;99.90;;;;;;4976393;28;20994;-78
2021/03/03 07:28:44;;;;;;;3.57;3.17;;;0.90;99.90;;;;;;4986054;28;20195;-79
2021/03/03 07:31:11;;;;;;;3.50;2.47;;;1.00;99.90;;;;;;4987370;28;20259;-79
2021/03/03 07:33:37;;;;;;;6.37;4.00;;;1.00;99.90;;;;;;4981417;28;20350;-77
2021/03/03 07:36:05;;;;;;;2.63;2.33;;;1.10;99.90;;;;;;4986645;28;20189;-78
2021/03/03 07:38:34;;;;;;;5.37;3.07;;;1.20;99.90;;;;;;4986478;28;20630;-78
2021/03/03 07:41:09;;;;;;;3.57;2.53;;;1.30;99.90;;;;;;4981532;28;20213;-78
2021/03/03 07:43:36;;;;;;;3.57;3.00;;;1.40;99.90;;;;;;4981329;28;20672;-77
2021/03/03 07:46:05;;;;;;;3.87;3.07;;;1.50;99.90;;;;;;4982510;28;20188;-79
2021/03/03 07:48:33;;;;;;;4.90;3.07;;;1.60;99.90;;;;;;4980103;28;20316;-80
2021/03/03 07:50:59;;;;;;;4.67;3.03;;;1.70;99.90;;;;;;4979247;28;20238;-78
2021/03/03 07:53:26;;;;;;;3.43;2.50;;;1.80;99.90;;;;;;4980692;28;20213;-78
2021/03/03 07:55:57;;;;;;;5.30;3.50;;;1.90;99.90;;;;;;4979596;28;20265;-80
2021/03/03 07:58:23;;;;;;;1.77;1.67;;;2.00;99.90;;;;;;4979819;28;20262;-78
2021/03/03 08:00:49;;;;;;;3.83;2.87;;;2.10;99.90;;;;;;4983979;28;20236;-78
2021/03/03 08:03:15;;;;;;;3.97;2.63;;;2.20;99.90;;;;;;4978053;28;20705;-77
2021/03/03 08:05:41;;;;;;;4.93;3.30;;;2.40;99.90;;;;;;4978968;28;20272;-78
2021/03/03 08:08:28;;;;;;;4.63;3.17;;;2.60;99.90;;;;;;4986510;28;20654;-78
2021/03/03 08:11:00;;;;;;;4.13;2.97;;;2.70;99.90;;;;;;4985286;28;20276;-77
2021/03/03 08:13:32;;;;;;;3.37;2.40;;;2.90;99.90;;;;;;4985319;28;20200;-77
2021/03/03 08:15:59;;;;;;;2.90;2.57;;;3.10;99.90;;;;;;4978746;28;20197;-77
2021/03/03 08:18:29;;;;;;;3.40;2.93;;;3.30;99.90;;;;;;4983549;28;20453;-78
2021/03/03 08:20:58;;;;;;;4.10;3.23;;;3.50;99.90;;;;;;4993405;28;20242;-78
2021/03/03 08:23:33;;;;;;;4.30;2.83;;;3.70;99.90;;;;;;4977598;28;20275;-78
2021/03/03 08:26:14;;;;;;;5.10;3.63;;;4.00;99.90;;;;;;4977697;28;20759;-76
2021/03/03 08:29:12;;;;;;;4.83;2.87;;;4.20;99.90;;;;;;4984259;28;20689;-79
2021/03/03 08:31:40;;;;;;;3.77;2.93;;;4.50;99.90;;;;;;4977690;28;20223;-78
2021/03/03 08:34:08;;;;;;;4.87;3.87;;;4.70;99.90;;;;;;4977390;28;20303;-77
2021/03/03 08:36:35;;;;;;;4.33;3.27;;;5.00;99.90;;;;;;4984400;28;20197;-77
2021/03/03 08:39:01;;;;;;;3.60;2.60;;;5.20;99.90;;;;;;4985714;28;20282;-79
2021/03/03 08:41:30;;;;;;;5.80;3.30;;;5.40;99.90;;;;;;4977115;28;20600;-80
2021/03/03 08:44:12;;;;;;;8.23;3.67;;;5.60;99.90;;;;;;4978294;28;20181;-78
2021/03/03 08:46:41;;;;;;;4.10;2.77;;;5.70;99.90;;;;;;4984502;28;20181;-79
2021/03/03 08:49:09;;;;;;;3.77;2.77;;;6.00;99.90;;;;;;4976935;28;20185;-79
2021/03/03 08:51:36;;;;;;;3.57;2.90;;;6.20;99.90;;;;;;4978647;28;20236;-81
2021/03/03 08:54:12;;;;;;;5.07;3.47;;;6.40;99.90;;;;;;4975825;28;20438;-76
2021/03/03 08:56:49;;;;;;;3.37;2.87;;;6.50;99.90;;;;;;4984007;28;20527;-79
2021/03/03 08:59:40;;;;;;;5.63;3.53;;;6.70;99.90;;;;;;4984331;28;20753;-77
2021/03/03 09:02:17;;;;;;;5.23;3.50;;;7.00;99.90;;;;;;4994597;28;20254;-78
2021/03/03 09:04:53;;;;;;;5.47;3.87;;;7.20;99.90;;;;;;4977162;28;20276;-79
2021/03/03 09:07:22;;;;;;;4.67;3.30;;;7.30;99.90;;;;;;4978114;28;20171;-79
2021/03/03 09:09:53;;;;;;;4.37;3.30;;;7.40;99.90;;;;;;4995147;28;20193;-78
2021/03/03 09:12:21;;;;;;;4.90;3.37;;;7.40;99.90;;;;;;4986491;28;20219;-79
2021/03/03 09:14:49;;;;;;;4.63;3.77;;;7.50;99.90;;;;;;4979159;28;20184;-81
2021/03/03 09:17:17;;;;;;;4.93;3.73;;;7.70;99.90;;;;;;4984700;28;20252;-80
2021/03/03 09:19:44;;;;;;;3.47;3.17;;;7.90;99.90;;;;;;4981984;28;20262;-80
2021/03/03 09:22:33;;;;;;;5.27;3.03;;;8.20;99.90;;;;;;4974349;28;20204;-81
2021/03/03 09:25:05;;;;;;;5.10;3.33;;;8.40;99.90;;;;;;4974195;28;20334;-81
2021/03/03 09:27:30;;;;;;;5.27;3.30;;;8.70;99.90;;;;;;4975842;28;20194;-80
2021/03/03 09:29:57;;;;;;;6.53;4.17;;;8.90;99.90;;;;;;4978241;28;20196;-80
2021/03/03 09:32:23;;;;;;;4.17;3.40;;;9.10;99.90;;;;;;4976248;28;20224;-81
2021/03/03 09:34:54;;;;;;;4.87;3.70;;;9.40;99.90;;;;;;4977181;28;20189;-82
2021/03/03 09:37:22;;;;;;;3.43;3.07;;;9.50;99.90;;;;;;4974864;28;20215;-80
2021/03/03 09:39:58;;;;;;;4.10;3.33;;;9.80;99.90;;;;;;4985230;28;20204;-80
2021/03/03 09:42:26;;;;;;;3.57;2.90;;;10.00;99.90;;;;;;4977460;28;20204;-80
2021/03/03 09:44:57;;;;;;;5.33;3.27;;;10.10;99.90;;;;;;4976080;28;20189;-80
2021/03/03 09:47:28;;;;;;;4.40;2.90;;;10.30;99.90;;;;;;4982609;28;20180;-78
2021/03/03 09:49:54;;;;;;;5.07;3.23;;;10.40;99.90;;;;;;4982529;28;20289;-79
2021/03/03 09:52:20;;;;;;;7.00;3.00;;;10.50;99.90;;;;;;4975927;28;20215;-79
2021/03/03 09:54:46;;;;;;;4.90;3.00;;;10.50;99.90;;;;;;4978319;28;20189;-80
2021/03/03 09:57:21;;;;;;;4.40;3.23;;;10.40;99.90;;;;;;4983077;28;20569;-79
2021/03/03 09:59:48;;;;;;;4.27;3.17;;;10.40;99.90;;;;;;4983099;28;20204;-79
2021/03/03 10:02:24;;;;;;;5.07;2.77;;;10.40;99.90;;;;;;4975263;28;20200;-80
2021/03/03 10:04:50;;;;;;;4.53;2.80;;;10.50;99.90;;;;;;4978294;28;20180;-79
2021/03/03 10:07:20;;;;;;;5.50;3.50;;;10.50;99.90;;;;;;4977492;28;20728;-80
2021/03/03 10:09:48;;;;;;;4.57;2.70;;;10.60;99.90;;;;;;4979459;28;20243;-81
2021/03/03 10:12:16;;;;;;;4.50;2.87;;;10.80;99.90;;;;;;4984333;28;20215;-79
2021/03/03 10:14:59;;;;;;;4.80;3.42;;;11.10;99.90;;;;;;4977807;28;20564;-80
2021/03/03 10:17:38;;;;;;;7.80;3.65;;;11.30;99.90;;;;;;4977592;28;20191;-79
2021/03/03 10:20:26;;;;;;;3.77;2.60;;;11.50;99.90;;;;;;4983006;28;20654;-80
2021/03/03 10:22:52;;;;;;;5.07;3.50;;;11.70;99.90;;;;;;4982945;28;20217;-80
2021/03/03 10:25:31;;;;;;;4.88;3.50;;;11.90;99.90;;;;;;4976625;28;20189;-79
2021/03/03 10:28:21;;;;;;;3.63;2.95;;;12.10;99.90;;;;;;4976872;28;20262;-79
2021/03/03 10:30:49;;;;;;;4.45;3.13;;;12.40;99.90;;;;;;4974603;28;20232;-79
2021/03/03 10:33:34;;;;;;;4.65;3.05;;;12.60;99.90;;;;;;4983120;28;20227;-77
2021/03/03 10:36:02;;;;;;;6.65;3.25;;;12.60;99.90;;;;;;4982242;28;21311;-78
2021/03/03 10:38:28;;;;;;;5.32;3.38;;;12.80;99.90;;;;;;4993005;28;20180;-79
2021/03/03 10:40:56;;;;;;;4.78;3.03;;;12.90;99.90;;;;;;4975094;28;20551;-79
2021/03/03 10:43:23;;;;;;;5.68;3.85;;;13.10;99.90;;;;;;4974951;28;20212;-78
2021/03/03 10:46:06;;;;;;;3.40;2.63;;;13.00;99.90;;;;;;4973966;28;20585;-78
2021/03/03 10:48:32;;;;;;;6.90;4.13;;;12.90;99.90;;;;;;4982396;28;20232;-77
2021/03/03 10:51:01;;;;;;;4.07;3.00;;;12.90;99.90;;;;;;4973109;28;20192;-78
2021/03/03 10:53:53;;;;;;;5.32;3.42;;;12.90;99.90;;;;;;4976991;28;20222;-78
2021/03/03 10:56:27;;;;;;;5.55;4.03;;;12.90;99.90;;;;;;4981345;28;20180;-77
2021/03/03 10:58:57;;;;;;;5.47;3.53;;;12.90;99.90;;;;;;4982330;28;20208;-78
2021/03/03 11:01:24;;;;;;;5.43;3.58;;;13.00;99.90;;;;;;4981574;28;20176;-78
2021/03/03 11:03:57;;;;;;;5.15;3.67;;;12.90;99.90;;;;;;4980167;28;20259;-78
2021/03/03 11:06:27;;;;;;;5.25;3.22;;;12.90;99.90;;;;;;4979625;28;20283;-79
2021/03/03 11:08:52;;;;;;;5.03;3.38;;;12.90;99.90;;;;;;4987076;28;20199;-77
2021/03/03 11:11:18;;;;;;;5.63;3.25;;;13.10;99.90;;;;;;4985808;28;20188;-78
2021/03/03 11:13:43;;;;;;;5.53;3.30;;;13.20;99.90;;;;;;4981388;28;20591;-76
2021/03/03 11:16:09;;;;;;;5.13;3.38;;;13.40;99.90;;;;;;4980196;28;20271;-78
2021/03/03 11:18:34;;;;;;;4.75;3.20;;;13.50;99.90;;;;;;4981112;28;20208;-78
2021/03/03 11:21:00;;;;;;;5.00;3.05;;;13.60;99.90;;;;;;4979829;28;20638;-81
2021/03/03 11:23:27;;;;;;;7.72;3.25;;;13.90;99.90;;;;;;4984546;28;20201;-78
2021/03/03 11:25:54;;;;;;;4.32;2.90;;;13.90;99.90;;;;;;4981902;28;20331;-78
2021/03/03 11:28:19;;;;;;;7.70;4.10;;;13.80;99.90;;;;;;4969423;28;20572;-77
2021/03/03 11:30:45;;;;;;;5.55;3.22;;;13.90;99.90;;;;;;4985138;28;20195;-77
2021/03/03 11:33:11;;;;;;;5.18;3.30;;;13.70;99.90;;;;;;4986502;28;20216;-78
2021/03/03 11:35:36;;;;;;;6.13;4.10;;;13.60;99.90;;;;;;4980452;28;20188;-78
2021/03/03 11:38:02;;;;;;;4.50;2.88;;;13.50;99.90;;;;;;4980994;28;21127;-78
2021/03/03 11:40:28;;;;;;;7.07;3.80;;;13.60;99.90;;;;;;4986950;28;20668;-79
2021/03/03 11:42:53;;;;;;;4.60;3.28;;;13.60;99.90;;;;;;4982219;28;20204;-77
2021/03/03 11:45:20;;;;;;;5.40;3.00;;;13.60;99.90;;;;;;4984360;28;20185;-77
2021/03/03 11:47:45;;;;;;;5.20;3.55;;;13.70;99.90;;;;;;4985435;28;20192;-78
2021/03/03 11:50:11;;;;;;;4.45;3.13;;;13.80;99.90;;;;;;4977060;28;20587;-78
2021/03/03 11:52:37;;;;;;;5.15;3.03;;;13.90;99.90;;;;;;4974914;28;20244;-78
2021/03/03 11:55:04;;;;;;;5.07;3.08;;;14.00;99.90;;;;;;4974681;28;20495;-77
2021/03/03 11:57:30;;;;;;;4.20;2.85;;;14.10;99.90;;;;;;4977032;28;20185;-77
2021/03/03 11:59:55;;;;;;;5.15;3.60;;;14.20;99.90;;;;;;4982110;28;20223;-77
2021/03/03 12:02:21;;;;;;;4.45;3.38;;;14.30;99.90;;;;;;4970779;28;20702;-77
2021/03/03 12:04:46;;;;;;;4.55;2.88;;;14.30;99.90;;;;;;4977000;28;20191;-78
2021/03/03 12:07:12;;;;;;;4.90;3.53;;;14.40;99.90;;;;;;4969693;28;20881;-79
2021/03/03 12:09:38;;;;;;;5.95;2.85;;;14.40;99.90;;;;;;4985225;28;20278;-78
2021/03/03 12:12:04;;;;;;;5.38;3.42;;;14.50;99.90;;;;;;4981290;28;20746;-78
2021/03/03 12:14:29;;;;;;;3.78;2.78;;;14.60;99.90;;;;;;4973142;28;20185;-80
2021/03/03 12:16:55;;;;;;;6.18;3.72;;;14.70;99.90;;;;;;4966282;28;20617;-77
2021/03/03 12:19:21;;;;;;;5.43;3.40;;;14.60;99.90;;;;;;4977560;28;20267;-78
2021/03/03 12:21:46;;;;;;;5.22;2.92;;;14.70;99.90;;;;;;4976817;28;20219;-79
2021/03/03 12:24:12;;;;;;;5.38;3.05;;;14.80;99.90;;;;;;4972704;28;20195;-78
2021/03/03 12:26:38;;;;;;;5.55;3.17;;;14.80;99.90;;;;;;4973036;28;20196;-77
2021/03/03 12:29:05;;;;;;;6.97;3.40;;;14.80;99.90;;;;;;4967645;28;20196;-78
2021/03/03 12:31:30;;;;;;;6.75;3.80;;;14.80;99.90;;;;;;4983551;28;20306;-78
2021/03/03 12:33:56;;;;;;;5.50;3.60;;;14.70;99.90;;;;;;4983612;28;20275;-78
2021/03/03 12:36:22;;;;;;;5.82;3.35;;;14.70;99.90;;;;;;4981015;28;20188;-78
2021/03/03 12:38:47;;;;;;;5.88;3.83;;;14.70;99.90;;;;;;4975227;28;20638;-77
2021/03/03 12:41:13;;;;;;;6.25;2.95;;;14.70;99.90;;;;;;4977815;28;20193;-77
2021/03/03 12:43:38;;;;;;;7.13;4.20;;;14.50;99.90;;;;;;4974277;28;20192;-77
2021/03/03 12:46:04;;;;;;;6.57;3.70;;;14.50;99.90;;;;;;4973566;28;20185;-78
2021/03/03 12:48:30;;;;;;;10.20;4.38;;;14.50;99.90;;;;;;4975652;28;20317;-77
2021/03/03 12:50:55;;;;;;;7.22;3.92;;;14.40;99.90;;;;;;4979196;28;20239;-77
2021/03/03 12:53:21;;;;;;;6.25;3.95;;;14.60;99.90;;;;;;4983271;28;20678;-77
2021/03/03 12:55:47;;;;;;;6.78;3.80;;;14.50;99.90;;;;;;4977732;28;20192;-77
2021/03/03 12:58:13;;;;;;;7.43;4.43;;;14.50;99.90;;;;;;4977666;28;20266;-77